Time;durP1;ratioP1;P1;durP2;ratioP2;P2;SDS_P1;SDS_P2;PMS_P1;PMS_P2;Temp;Humidity;BMP_temperature;BMP_pressure;BME280_temperature;BME280_humidity;BME280_pressure;Samples;Min_cycle;Max_cycle;Signal;HPM_P1;HPM_P2
2023/07/02 00:00:19;;;;;;;;;;;18.60;76.10;;;;;;5071754;28;20421;-33
2023/07/02 00:02:45;;;;;;;;;;;18.60;76.30;;;;;;5071659;28;19908;-31
2023/07/02 00:05:11;;;;;;;;;;;18.60;76.30;;;;;;5053664;28;19913;-34
2023/07/02 00:07:37;;;;;;;;;;;18.70;76.60;;;;;;5071755;28;19909;-34
2023/07/02 00:10:03;;;;;;;;;;;18.60;76.70;;;;;;5071646;28;19909;-30
2023/07/02 00:12:28;;;;;;;;;;;18.60;76.70;;;;;;5071806;28;19919;-32
2023/07/02 00:14:54;;;;;;;;;;;18.60;76.90;;;;;;5072030;28;19909;-29
2023/07/02 00:17:19;;;;;;;;;;;18.70;77.00;;;;;;5072102;28;19974;-31
2023/07/02 00:19:46;;;;;;;;;;;18.60;77.10;;;;;;5071705;28;19908;-30
2023/07/02 00:22:11;;;;;;;;;;;18.60;78.00;;;;;;5053703;28;20257;-30
2023/07/02 00:24:37;;;;;;;;;;;18.60;77.60;;;;;;5053530;28;19919;-31
2023/07/02 00:27:03;;;;;;;;;;;18.60;77.60;;;;;;5075027;28;19908;-31
2023/07/02 00:29:28;;;;;;;;;;;18.50;77.50;;;;;;5075491;28;19916;-30
2023/07/02 00:31:54;;;;;;;;;;;18.60;77.70;;;;;;5075552;28;20018;-29
2023/07/02 00:34:20;;;;;;;;;;;18.60;77.90;;;;;;5075425;28;19912;-30
2023/07/02 00:36:45;;;;;;;;;;;18.50;77.80;;;;;;5075294;28;19913;-29
2023/07/02 00:39:11;;;;;;;;;;;18.50;78.10;;;;;;5075254;28;19996;-30
2023/07/02 00:41:37;;;;;;;;;;;18.50;78.10;;;;;;5057210;28;19919;-31
2023/07/02 00:44:03;;;;;;;;;;;18.50;78.10;;;;;;5075545;28;20360;-32
2023/07/02 00:46:28;;;;;;;;;;;18.50;78.20;;;;;;5075335;28;19908;-33
2023/07/02 00:48:55;;;;;;;;;;;18.50;78.80;;;;;;5075308;28;20348;-30
2023/07/02 00:51:21;;;;;;;;;;;18.40;79.10;;;;;;5075400;28;19958;-29
2023/07/02 00:53:48;;;;;;;;;;;18.30;79.40;;;;;;5075365;28;19912;-33
2023/07/02 00:56:13;;;;;;;;;;;18.20;79.40;;;;;;5057104;28;19909;-33
2023/07/02 00:58:40;;;;;;;;;;;18.10;79.50;;;;;;5074965;28;20362;-33
2023/07/02 01:01:05;;;;;;;;;;;18.00;79.40;;;;;;5074969;28;19912;-30
2023/07/02 01:03:32;;;;;;;;;;;18.00;79.50;;;;;;5075200;28;20268;-30
2023/07/02 01:05:58;;;;;;;;;;;17.90;79.60;;;;;;5074895;28;19913;-30
2023/07/02 01:08:24;;;;;;;;;;;17.80;79.60;;;;;;5074962;28;19977;-31
2023/07/02 01:10:49;;;;;;;;;;;17.70;79.50;;;;;;5056825;28;19908;-34
2023/07/02 01:13:18;;;;;;;;;;;17.60;79.50;;;;;;5074815;28;19915;-31
2023/07/02 01:15:44;;;;;;;;;;;17.60;79.50;;;;;;5075116;28;20379;-31
2023/07/02 01:18:10;;;;;;;;;;;17.50;79.50;;;;;;5056676;28;20017;-33
2023/07/02 01:20:36;;;;;;;;;;;17.50;79.40;;;;;;5074613;28;19958;-34
2023/07/02 01:23:02;;;;;;;;;;;17.40;79.40;;;;;;5074852;28;19983;-31
2023/07/02 01:25:28;;;;;;;;;;;17.40;79.40;;;;;;5074745;28;19948;-38
2023/07/02 01:27:55;;;;;;;;;;;17.40;79.40;;;;;;5074469;28;19995;-30
2023/07/02 01:30:20;;;;;;;;;;;17.40;79.40;;;;;;5074463;28;20222;-32
2023/07/02 01:32:46;;;;;;;;;;;17.30;79.30;;;;;;5074331;28;19958;-29
2023/07/02 01:35:11;;;;;;;;;;;17.30;79.30;;;;;;5074404;28;20351;-32
2023/07/02 01:37:38;;;;;;;;;;;17.30;79.30;;;;;;5074002;28;20003;-29
2023/07/02 01:40:08;;;;;;;;;;;17.30;79.30;;;;;;5074328;28;20322;-30
2023/07/02 01:42:33;;;;;;;;;;;17.30;79.30;;;;;;5074232;28;20265;-30
2023/07/02 01:44:59;;;;;;;;;;;17.30;79.40;;;;;;5074188;28;20010;-31
2023/07/02 01:47:24;;;;;;;;;;;17.30;79.40;;;;;;5056182;28;19915;-32
2023/07/02 01:49:50;;;;;;;;;;;17.20;79.40;;;;;;5074149;28;19909;-30
2023/07/02 01:52:16;;;;;;;;;;;17.10;79.50;;;;;;5074045;28;19909;-31
2023/07/02 01:54:42;;;;;;;;;;;17.10;79.50;;;;;;5074072;28;19908;-31
2023/07/02 01:57:07;;;;;;;;;;;17.10;79.50;;;;;;5073876;28;20288;-31
2023/07/02 01:59:33;;;;;;;;;;;17.00;79.50;;;;;;5073999;28;19909;-31
2023/07/02 02:01:58;;;;;;;;;;;17.00;79.60;;;;;;5073850;28;19969;-30
2023/07/02 02:04:24;;;;;;;;;;;17.00;79.70;;;;;;5073725;28;20003;-29
2023/07/02 02:06:49;;;;;;;;;;;16.90;79.70;;;;;;5073818;28;19908;-33
2023/07/02 02:09:15;;;;;;;;;;;16.90;79.80;;;;;;5055742;28;19908;-29
2023/07/02 02:11:41;;;;;;;;;;;16.80;79.80;;;;;;5073821;28;19909;-32
2023/07/02 02:14:07;;;;;;;;;;;16.70;79.90;;;;;;5073920;28;20380;-28
2023/07/02 02:16:35;;;;;;;;;;;16.70;80.00;;;;;;5073564;28;19954;-29
2023/07/02 02:19:02;;;;;;;;;;;16.60;80.00;;;;;;5073620;28;19913;-30
2023/07/02 02:21:27;;;;;;;;;;;16.60;80.10;;;;;;5073769;28;19908;-29
2023/07/02 02:23:53;;;;;;;;;;;16.50;80.20;;;;;;5073395;28;19920;-30
2023/07/02 02:26:21;;;;;;;;;;;16.50;80.20;;;;;;5073346;28;19912;-29
2023/07/02 02:28:47;;;;;;;;;;;16.40;80.30;;;;;;5055145;28;19962;-30
2023/07/02 02:31:12;;;;;;;;;;;16.40;80.40;;;;;;5073357;28;20439;-30
2023/07/02 02:33:38;;;;;;;;;;;16.30;80.50;;;;;;5073614;28;19961;-32
2023/07/02 02:36:03;;;;;;;;;;;16.30;80.50;;;;;;5073182;28;19908;-32
2023/07/02 02:38:29;;;;;;;;;;;16.30;80.50;;;;;;5073115;28;20019;-28
2023/07/02 02:40:54;;;;;;;;;;;16.30;80.60;;;;;;5073151;28;20318;-29
2023/07/02 02:43:20;;;;;;;;;;;16.20;80.60;;;;;;5073134;28;19915;-30
2023/07/02 02:45:46;;;;;;;;;;;16.20;80.70;;;;;;5072999;28;20003;-29
2023/07/02 02:48:11;;;;;;;;;;;16.10;80.70;;;;;;5072415;28;20555;-30
2023/07/02 02:50:41;;;;;;;;;;;16.10;80.80;;;;;;5054830;28;20287;-31
2023/07/02 02:53:07;;;;;;;;;;;16.10;80.90;;;;;;5054862;28;20003;-28
2023/07/02 02:55:32;;;;;;;;;;;16.10;80.90;;;;;;5072971;28;20004;-30
2023/07/02 02:57:57;;;;;;;;;;;16.10;80.90;;;;;;5072742;28;19916;-32
2023/07/02 03:00:23;;;;;;;;;;;16.10;80.90;;;;;;5072896;28;19959;-30
2023/07/02 03:02:48;;;;;;;;;;;16.10;80.90;;;;;;5072679;28;19915;-30
2023/07/02 03:05:16;;;;;;;;;;;16.10;80.90;;;;;;5072634;28;20007;-30
2023/07/02 03:07:41;;;;;;;;;;;16.10;80.90;;;;;;5072548;28;19913;-30
2023/07/02 03:10:07;;;;;;;;;;;16.10;80.90;;;;;;5072436;28;20043;-30
2023/07/02 03:12:32;;;;;;;;;;;16.20;80.90;;;;;;5072432;28;20389;-30
2023/07/02 03:14:58;;;;;;;;;;;16.10;80.90;;;;;;5072528;28;19913;-32
2023/07/02 03:17:23;;;;;;;;;;;16.20;80.90;;;;;;5072459;28;19913;-31
2023/07/02 03:19:49;;;;;;;;;;;16.20;80.80;;;;;;5072423;28;20375;-32
2023/07/02 03:22:15;;;;;;;;;;;16.20;80.80;;;;;;5072387;28;19958;-30
2023/07/02 03:24:40;;;;;;;;;;;16.20;80.70;;;;;;5072521;28;20364;-31
2023/07/02 03:27:06;;;;;;;;;;;16.20;80.70;;;;;;5072209;28;19995;-31
2023/07/02 03:29:32;;;;;;;;;;;16.30;80.70;;;;;;5072346;28;19912;-29
2023/07/02 03:31:58;;;;;;;;;;;16.30;80.70;;;;;;5072162;28;20300;-31
2023/07/02 03:34:23;;;;;;;;;;;16.30;80.70;;;;;;5072449;28;19916;-34
2023/07/02 03:36:49;;;;;;;;;;;16.30;80.70;;;;;;5072163;28;19909;-37
2023/07/02 03:39:14;;;;;;;;;;;16.30;80.70;;;;;;5072105;28;19909;-33
2023/07/02 03:41:40;;;;;;;;;;;16.30;81.30;;;;;;5072727;28;19954;-30
2023/07/02 03:44:06;;;;;;;;;;;16.30;80.70;;;;;;5072018;28;19909;-32
2023/07/02 03:46:31;;;;;;;;;;;16.30;80.60;;;;;;5072178;28;20301;-31
2023/07/02 03:48:57;;;;;;;;;;;16.30;80.60;;;;;;5071979;28;20331;-31
2023/07/02 03:51:22;;;;;;;;;;;16.30;80.60;;;;;;5071922;28;20363;-29
2023/07/02 03:53:48;;;;;;;;;;;16.30;80.60;;;;;;5071905;28;20375;-31
2023/07/02 03:56:13;;;;;;;;;;;16.30;80.60;;;;;;5071866;28;19912;-32
2023/07/02 03:58:39;;;;;;;;;;;16.20;80.60;;;;;;5071826;28;19912;-31
2023/07/02 04:01:05;;;;;;;;;;;16.20;80.70;;;;;;5071796;28;19915;-32
2023/07/02 04:03:30;;;;;;;;;;;16.20;80.70;;;;;;5071654;28;19908;-32
2023/07/02 04:05:56;;;;;;;;;;;16.20;80.70;;;;;;5071894;28;19991;-32
2023/07/02 04:08:22;;;;;;;;;;;16.20;80.60;;;;;;5071847;28;19909;-34
2023/07/02 04:10:47;;;;;;;;;;;16.20;80.70;;;;;;5071951;28;19908;-32
2023/07/02 04:13:12;;;;;;;;;;;16.20;80.70;;;;;;5071740;28;19908;-31
2023/07/02 04:15:38;;;;;;;;;;;16.20;80.70;;;;;;5071767;28;20050;-32
2023/07/02 04:18:04;;;;;;;;;;;16.10;80.70;;;;;;5071739;28;20276;-29
2023/07/02 04:20:29;;;;;;;;;;;16.10;80.70;;;;;;5071682;28;19908;-31
2023/07/02 04:22:55;;;;;;;;;;;16.10;80.70;;;;;;5071635;28;19909;-34
2023/07/02 04:25:21;;;;;;;;;;;16.10;80.70;;;;;;5053441;28;20454;-31
2023/07/02 04:27:46;;;;;;;;;;;16.10;80.60;;;;;;5071592;28;19962;-29
2023/07/02 04:30:12;;;;;;;;;;;16.20;80.60;;;;;;5071444;28;19908;-29
2023/07/02 04:32:40;;;;;;;;;;;16.20;80.50;;;;;;5071570;28;19912;-30
2023/07/02 04:35:06;;;;;;;;;;;16.30;80.50;;;;;;5071621;28;19987;-32
2023/07/02 04:37:32;;;;;;;;;;;16.30;80.30;;;;;;5053305;28;19923;-31
2023/07/02 04:39:57;;;;;;;;;;;16.30;80.20;;;;;;5053453;28;20286;-29
2023/07/02 04:42:27;;;;;;;;;;;16.30;80.10;;;;;;5071468;28;19912;-30
2023/07/02 04:44:56;;;;;;;;;;;16.30;80.10;;;;;;5071414;28;19908;-30
2023/07/02 04:47:21;;;;;;;;;;;16.30;80.10;;;;;;5071321;28;19909;-29
2023/07/02 04:49:47;;;;;;;;;;;16.30;80.10;;;;;;5071442;28;19958;-31
2023/07/02 04:52:12;;;;;;;;;;;16.30;80.00;;;;;;5071478;28;19915;-33
2023/07/02 04:54:38;;;;;;;;;;;16.30;79.90;;;;;;5071237;28;20432;-31
2023/07/02 04:57:04;;;;;;;;;;;16.30;79.80;;;;;;5071871;28;19912;-38
2023/07/02 04:59:29;;;;;;;;;;;16.20;79.60;;;;;;5071354;28;20078;-32
2023/07/02 05:01:54;;;;;;;;;;;16.30;79.70;;;;;;5071496;28;19948;-33
2023/07/02 05:04:20;;;;;;;;;;;16.30;79.60;;;;;;5071332;28;19913;-34
2023/07/02 05:06:46;;;;;;;;;;;16.30;79.60;;;;;;5071194;28;20401;-29
2023/07/02 05:09:11;;;;;;;;;;;16.30;79.50;;;;;;5071138;28;20376;-29
2023/07/02 05:11:37;;;;;;;;;;;16.30;79.40;;;;;;5072293;28;19913;-29
2023/07/02 05:14:02;;;;;;;;;;;16.40;79.50;;;;;;5074851;28;20373;-30
2023/07/02 05:16:27;;;;;;;;;;;16.40;79.30;;;;;;5074761;28;19912;-35
2023/07/02 05:18:53;;;;;;;;;;;16.40;79.20;;;;;;5074928;28;19920;-32
2023/07/02 05:21:19;;;;;;;;;;;16.40;79.10;;;;;;5074675;28;20360;-32
2023/07/02 05:23:44;;;;;;;;;;;16.40;79.00;;;;;;5074618;28;19958;-30
2023/07/02 05:26:10;;;;;;;;;;;16.40;78.70;;;;;;5074624;28;19912;-34
2023/07/02 05:28:35;;;;;;;;;;;16.50;78.70;;;;;;5074457;28;19923;-34
2023/07/02 05:31:01;;;;;;;;;;;16.60;78.50;;;;;;5056450;28;20396;-32
2023/07/02 05:33:26;;;;;;;;;;;16.60;78.20;;;;;;5074426;28;19916;-35
2023/07/02 05:35:54;;;;;;;;;;;16.80;78.10;;;;;;5073923;28;21529;-32
2023/07/02 05:38:19;;;;;;;;;;;16.80;77.60;;;;;;5074332;28;19960;-32
2023/07/02 05:40:45;;;;;;;;;;;16.90;77.30;;;;;;5074422;28;19912;-33
2023/07/02 05:43:11;;;;;;;;;;;16.90;76.90;;;;;;5056227;28;19999;-34
2023/07/02 05:45:37;;;;;;;;;;;16.90;76.90;;;;;;5074500;28;20004;-30
2023/07/02 05:48:02;;;;;;;;;;;16.90;76.90;;;;;;5074139;28;19908;-30
2023/07/02 05:50:28;;;;;;;;;;;17.00;76.10;;;;;;5074173;28;19912;-37
2023/07/02 05:52:53;;;;;;;;;;;17.00;76.50;;;;;;5073971;28;19920;-31
2023/07/02 05:55:19;;;;;;;;;;;17.00;76.40;;;;;;5074028;28;20294;-30
2023/07/02 05:57:45;;;;;;;;;;;17.00;76.20;;;;;;5073836;28;19919;-30
2023/07/02 06:00:11;;;;;;;;;;;17.00;75.70;;;;;;5073878;28;19931;-29
2023/07/02 06:02:36;;;;;;;;;;;17.10;75.90;;;;;;5073642;28;19909;-31
2023/07/02 06:05:02;;;;;;;;;;;17.10;75.50;;;;;;5073837;28;19915;-30
2023/07/02 06:07:28;;;;;;;;;;;17.20;74.60;;;;;;5074161;28;19913;-29
2023/07/02 06:09:53;;;;;;;;;;;17.20;74.80;;;;;;5073824;28;19928;-32
2023/07/02 06:12:20;;;;;;;;;;;17.20;74.50;;;;;;5073927;28;19984;-29
2023/07/02 06:14:46;;;;;;;;;;;17.20;74.10;;;;;;5073769;28;19920;-29
2023/07/02 06:17:11;;;;;;;;;;;17.20;74.00;;;;;;5073506;28;20360;-32
2023/07/02 06:19:37;;;;;;;;;;;17.20;74.20;;;;;;5073435;28;19958;-30
2023/07/02 06:22:03;;;;;;;;;;;17.20;73.40;;;;;;5073420;28;19912;-33
2023/07/02 06:24:28;;;;;;;;;;;17.20;73.20;;;;;;5072394;28;20007;-31
2023/07/02 06:26:54;;;;;;;;;;;17.20;72.80;;;;;;5073601;28;20007;-32
2023/07/02 06:29:19;;;;;;;;;;;17.20;72.90;;;;;;5073903;28;19921;-34
2023/07/02 06:31:45;;;;;;;;;;;17.20;72.20;;;;;;5073393;28;19913;-30
2023/07/02 06:34:10;;;;;;;;;;;17.20;72.00;;;;;;5073324;28;19912;-30
2023/07/02 06:36:36;;;;;;;;;;;17.20;72.20;;;;;;5073343;28;19912;-32
2023/07/02 06:39:01;;;;;;;;;;;17.20;71.60;;;;;;5073519;28;19964;-29
2023/07/02 06:41:27;;;;;;;;;;;17.30;72.00;;;;;;5073106;28;19966;-31
2023/07/02 06:43:52;;;;;;;;;;;17.40;71.00;;;;;;5072910;28;20049;-31
2023/07/02 06:46:18;;;;;;;;;;;17.40;71.50;;;;;;5073027;28;20376;-33
2023/07/02 06:48:44;;;;;;;;;;;17.50;71.20;;;;;;5072964;28;19920;-31
2023/07/02 06:51:12;;;;;;;;;;;17.50;71.30;;;;;;5072694;28;19912;-32
2023/07/02 06:53:37;;;;;;;;;;;17.60;71.20;;;;;;5072767;28;19912;-30
2023/07/02 06:56:03;;;;;;;;;;;17.70;71.10;;;;;;5072781;28;19919;-31
2023/07/02 06:58:29;;;;;;;;;;;17.70;70.40;;;;;;5072699;28;20005;-36
2023/07/02 07:00:54;;;;;;;;;;;17.80;70.70;;;;;;5072735;28;20383;-32
2023/07/02 07:03:20;;;;;;;;;;;17.80;69.20;;;;;;5072549;28;19919;-31
2023/07/02 07:05:45;;;;;;;;;;;17.80;68.80;;;;;;5072779;28;19912;-32
2023/07/02 07:08:10;;;;;;;;;;;17.80;69.40;;;;;;5072513;28;19916;-29
2023/07/02 07:10:36;;;;;;;;;;;17.80;69.70;;;;;;5072564;28;19912;-32
2023/07/02 07:13:02;;;;;;;;;;;17.80;69.50;;;;;;5072386;28;19913;-36
2023/07/02 07:15:29;;;;;;;;;;;17.90;68.70;;;;;;5072417;28;20387;-42
2023/07/02 07:17:55;;;;;;;;;;;18.00;67.70;;;;;;5072242;28;19917;-35
2023/07/02 07:20:20;;;;;;;;;;;18.00;68.30;;;;;;5072346;28;19913;-32
2023/07/02 07:22:46;;;;;;;;;;;17.90;68.80;;;;;;5054225;28;19921;-32
2023/07/02 07:25:11;;;;;;;;;;;17.90;67.80;;;;;;5054365;28;19912;-30
2023/07/02 07:27:37;;;;;;;;;;;17.80;68.60;;;;;;5072020;28;19956;-42
2023/07/02 07:30:02;;;;;;;;;;;17.80;68.80;;;;;;5072141;28;19912;-38
2023/07/02 07:32:28;;;;;;;;;;;17.80;68.80;;;;;;5071992;28;19989;-34
2023/07/02 07:34:53;;;;;;;;;;;17.80;68.80;;;;;;5071729;28;20045;-32
2023/07/02 07:37:19;;;;;;;;;;;17.90;68.10;;;;;;5071721;28;19917;-31
2023/07/02 07:39:44;;;;;;;;;;;17.90;68.40;;;;;;5071970;28;19913;-29
2023/07/02 07:42:10;;;;;;;;;;;17.90;68.50;;;;;;5071892;28;19917;-33
2023/07/02 07:44:35;;;;;;;;;;;17.90;68.30;;;;;;5071877;28;19916;-34
2023/07/02 07:47:01;;;;;;;;;;;18.00;67.90;;;;;;5071779;28;19913;-29
2023/07/02 07:49:26;;;;;;;;;;;18.00;67.70;;;;;;5053852;28;19913;-27
2023/07/02 07:51:52;;;;;;;;;;;18.10;67.80;;;;;;5071738;28;19948;-42
2023/07/02 07:54:17;;;;;;;;;;;18.10;67.50;;;;;;5071825;28;19916;-32
2023/07/02 07:56:43;;;;;;;;;;;18.20;66.90;;;;;;5071579;28;19919;-31
2023/07/02 07:59:08;;;;;;;;;;;18.30;67.40;;;;;;5071631;28;19916;-29
2023/07/02 08:01:34;;;;;;;;;;;18.40;67.20;;;;;;5072106;28;19951;-26
2023/07/02 08:03:59;;;;;;;;;;;18.40;66.80;;;;;;5071606;28;19913;-28
2023/07/02 08:06:25;;;;;;;;;;;18.40;67.00;;;;;;5071763;28;19913;-27
2023/07/02 08:08:50;;;;;;;;;;;18.40;66.60;;;;;;5071579;28;20375;-29
2023/07/02 08:11:16;;;;;;;;;;;18.50;66.70;;;;;;5071720;28;19913;-26
2023/07/02 08:13:42;;;;;;;;;;;18.40;66.70;;;;;;5071485;28;19981;-29
2023/07/02 08:16:09;;;;;;;;;;;18.50;66.80;;;;;;5071503;28;19967;-30
2023/07/02 08:18:34;;;;;;;;;;;18.50;66.10;;;;;;5071478;28;19925;-26
2023/07/02 08:21:00;;;;;;;;;;;18.50;66.00;;;;;;5071393;28;20371;-27
2023/07/02 08:23:25;;;;;;;;;;;18.50;66.20;;;;;;5071558;28;19913;-33
2023/07/02 08:25:51;;;;;;;;;;;18.60;65.20;;;;;;5071460;28;19948;-27
2023/07/02 08:28:16;;;;;;;;;;;18.60;64.10;;;;;;5071608;28;19924;-32
2023/07/02 08:30:42;;;;;;;;;;;18.60;63.20;;;;;;5071370;28;20386;-29
2023/07/02 08:33:07;;;;;;;;;;;18.70;61.20;;;;;;5071613;28;19923;-26
2023/07/02 08:35:33;;;;;;;;;;;18.80;62.40;;;;;;5071399;28;20099;-37
2023/07/02 08:37:58;;;;;;;;;;;18.90;61.70;;;;;;5071295;28;19916;-28
2023/07/02 08:40:24;;;;;;;;;;;18.90;59.70;;;;;;5071576;28;19913;-27
2023/07/02 08:42:49;;;;;;;;;;;18.90;58.80;;;;;;5071408;28;19919;-29
2023/07/02 08:45:18;;;;;;;;;;;18.90;59.60;;;;;;5071544;28;19912;-31
2023/07/02 08:47:45;;;;;;;;;;;18.80;59.30;;;;;;5074534;28;19912;-29
2023/07/02 08:50:12;;;;;;;;;;;18.70;59.40;;;;;;5075286;28;19913;-30
2023/07/02 08:52:37;;;;;;;;;;;18.60;60.00;;;;;;5075380;28;19913;-29
2023/07/02 08:55:03;;;;;;;;;;;18.60;60.40;;;;;;5075269;28;20288;-28
2023/07/02 08:57:28;;;;;;;;;;;18.70;60.60;;;;;;5075195;28;19928;-28
2023/07/02 08:59:54;;;;;;;;;;;18.70;59.80;;;;;;5075101;28;19912;-28
2023/07/02 09:02:29;;;;;;;;;;;18.90;60.20;;;;;;5057002;28;20007;-27
2023/07/02 09:04:58;;;;;;;;;;;19.00;60.30;;;;;;5075108;28;20351;-33
2023/07/02 09:07:24;;;;;;;;;;;19.10;60.60;;;;;;5075059;28;19919;-29
2023/07/02 09:09:50;;;;;;;;;;;19.30;60.40;;;;;;5074993;28;19913;-28
2023/07/02 09:12:25;;;;;;;;;;;19.30;60.30;;;;;;5074929;28;19978;-27
2023/07/02 09:14:58;;;;;;;;;;;19.40;60.30;;;;;;5075114;28;19962;-29
2023/07/02 09:17:30;;;;;;;;;;;19.40;59.50;;;;;;5074813;28;19999;-29
2023/07/02 09:19:57;;;;;;;;;;;19.30;59.70;;;;;;5074813;28;20003;-30
2023/07/02 09:22:22;;;;;;;;;;;19.20;59.90;;;;;;5074746;28;20333;-31
2023/07/02 09:24:53;;;;;;;;;;;19.20;60.20;;;;;;5074728;28;20007;-29
2023/07/02 09:27:18;;;;;;;;;;;19.30;57.30;;;;;;5074482;28;19916;-33
2023/07/02 09:29:49;;;;;;;;;;;19.40;56.60;;;;;;5074591;28;20003;-28
2023/07/02 09:32:23;;;;;;;;;;;19.50;56.10;;;;;;5074450;28;19913;-32
2023/07/02 09:34:49;;;;;;;;;;;19.50;54.80;;;;;;5074475;28;19912;-31
2023/07/02 09:37:14;;;;;;;;;;;19.40;53.90;;;;;;5074285;28;19923;-30
2023/07/02 09:39:40;;;;;;;;;;;19.40;55.00;;;;;;5056484;28;19912;-33
2023/07/02 09:42:05;;;;;;;;;;;19.50;55.70;;;;;;5074326;28;19912;-32
2023/07/02 09:44:32;;;;;;;;;;;19.50;55.20;;;;;;5074479;28;19916;-31
2023/07/02 09:47:00;;;;;;;;;;;19.60;53.70;;;;;;5074438;28;19917;-37
2023/07/02 09:49:26;;;;;;;;;;;19.70;52.80;;;;;;5074159;28;19956;-28
2023/07/02 09:51:52;;;;;;;;;;;19.70;53.50;;;;;;5074301;28;19912;-28
2023/07/02 09:54:20;;;;;;;;;;;19.80;53.10;;;;;;5074161;28;19962;-28
2023/07/02 09:56:45;;;;;;;;;;;19.90;51.70;;;;;;5074007;28;19913;-29
2023/07/02 09:59:11;;;;;;;;;;;19.90;51.40;;;;;;5073912;28;19917;-28
2023/07/02 10:01:37;;;;;;;;;;;20.00;50.70;;;;;;5073941;28;19913;-30
2023/07/02 10:04:15;;;;;;;;;;;20.00;51.20;;;;;;5073900;28;20441;-30
2023/07/02 10:06:48;;;;;;;;;;;20.10;51.00;;;;;;5056236;28;19919;-27
2023/07/02 10:09:13;;;;;;;;;;;20.10;51.10;;;;;;5073934;28;19912;-28
2023/07/02 10:11:39;;;;;;;;;;;20.10;50.60;;;;;;5073785;28;19919;-27
2023/07/02 10:14:04;;;;;;;;;;;20.10;50.80;;;;;;5073704;28;20007;-29
2023/07/02 10:16:31;;;;;;;;;;;20.20;49.30;;;;;;5073692;28;20007;-27
2023/07/02 10:19:13;;;;;;;;;;;20.20;49.10;;;;;;5073507;28;19916;-33
2023/07/02 10:21:38;;;;;;;;;;;20.30;48.90;;;;;;5073642;28;19920;-27
2023/07/02 10:24:13;;;;;;;;;;;20.40;49.10;;;;;;5073643;28;20272;-27
2023/07/02 10:26:51;;;;;;;;;;;20.40;47.90;;;;;;5073578;28;19922;-28
2023/07/02 10:29:18;;;;;;;;;;;20.50;48.00;;;;;;5073278;28;20003;-32
2023/07/02 10:31:53;;;;;;;;;;;20.50;48.80;;;;;;5073578;28;20397;-27
2023/07/02 10:34:32;;;;;;;;;;;20.60;48.90;;;;;;5073408;28;19951;-30
2023/07/02 10:36:58;;;;;;;;;;;20.70;49.00;;;;;;5073503;28;19913;-27
2023/07/02 10:39:23;;;;;;;;;;;20.70;48.40;;;;;;5073278;28;19912;-28
2023/07/02 10:41:49;;;;;;;;;;;20.70;49.20;;;;;;5073364;28;19913;-27
2023/07/02 10:44:15;;;;;;;;;;;20.70;49.00;;;;;;5073051;28;19912;-26
2023/07/02 10:46:47;;;;;;;;;;;20.80;48.40;;;;;;5073444;28;19939;-33
2023/07/02 10:49:13;;;;;;;;;;;20.70;48.30;;;;;;5073358;28;20364;-27
2023/07/02 10:51:38;;;;;;;;;;;20.70;48.50;;;;;;5072933;28;19920;-28
2023/07/02 10:54:05;;;;;;;;;;;20.70;48.20;;;;;;5072911;28;19912;-29
2023/07/02 10:56:31;;;;;;;;;;;20.70;48.20;;;;;;5072880;28;19916;-27
2023/07/02 10:58:56;;;;;;;;;;;20.80;48.40;;;;;;5054666;28;19970;-30
2023/07/02 11:01:29;;;;;;;;;;;20.80;49.00;;;;;;5072886;28;19912;-27
2023/07/02 11:03:56;;;;;;;;;;;20.80;48.20;;;;;;5072549;28;19995;-30
2023/07/02 11:06:21;;;;;;;;;;;20.80;48.30;;;;;;5072939;28;20292;-26
2023/07/02 11:08:47;;;;;;;;;;;20.90;47.50;;;;;;5072340;28;19913;-27
2023/07/02 11:11:12;;;;;;;;;;;21.10;48.70;;;;;;5072283;28;19920;-27
2023/07/02 11:13:45;;;;;;;;;;;21.20;48.20;;;;;;5072820;28;19924;-28
2023/07/02 11:16:24;;;;;;;;;;;21.30;47.50;;;;;;5072321;28;20360;-27
2023/07/02 11:18:49;;;;;;;;;;;21.20;47.20;;;;;;5054239;28;20194;-28
2023/07/02 11:21:15;;;;;;;;;;;21.30;47.20;;;;;;5072329;28;19920;-28
2023/07/02 11:23:40;;;;;;;;;;;21.30;47.20;;;;;;5072207;28;19920;-29
2023/07/02 11:26:06;;;;;;;;;;;21.30;46.80;;;;;;5072158;28;19912;-27
2023/07/02 11:28:32;;;;;;;;;;;21.30;46.50;;;;;;5050832;28;19921;-29
2023/07/02 11:30:57;;;;;;;;;;;21.40;46.30;;;;;;5050631;28;19917;-29
2023/07/02 11:33:34;;;;;;;;;;;21.40;45.50;;;;;;5052111;28;19912;-30
2023/07/02 11:36:00;;;;;;;;;;;21.40;46.00;;;;;;5052308;28;20054;-27
2023/07/02 11:38:26;;;;;;;;;;;21.40;45.20;;;;;;5051865;28;20011;-29
2023/07/02 11:40:51;;;;;;;;;;;21.40;45.60;;;;;;5052289;28;19919;-29
2023/07/02 11:43:16;;;;;;;;;;;21.50;46.10;;;;;;5052011;28;20066;-29
2023/07/02 11:45:43;;;;;;;;;;;21.50;46.40;;;;;;5051897;28;20376;-28
2023/07/02 11:48:08;;;;;;;;;;;21.50;44.60;;;;;;5052175;28;20011;-31
2023/07/02 11:50:34;;;;;;;;;;;21.30;44.80;;;;;;5051965;28;19979;-31
2023/07/02 11:52:59;;;;;;;;;;;21.30;45.40;;;;;;5051869;28;19913;-27
2023/07/02 11:55:25;;;;;;;;;;;21.20;44.20;;;;;;5051933;28;19996;-30
2023/07/02 11:57:50;;;;;;;;;;;21.10;44.10;;;;;;5051658;28;19962;-28
2023/07/02 12:00:16;;;;;;;;;;;21.10;44.40;;;;;;5051789;28;19963;-29
2023/07/02 12:02:42;;;;;;;;;;;21.00;45.00;;;;;;5051663;28;19919;-26
2023/07/02 12:05:07;;;;;;;;;;;21.20;45.50;;;;;;5052035;28;19920;-31
2023/07/02 12:07:33;;;;;;;;;;;21.30;44.80;;;;;;5051665;28;19917;-30
2023/07/02 12:09:59;;;;;;;;;;;21.30;44.20;;;;;;5051871;28;20264;-29
2023/07/02 12:12:24;;;;;;;;;;;21.40;44.70;;;;;;5051708;28;19920;-29
2023/07/02 12:14:50;;;;;;;;;;;21.50;44.70;;;;;;5051780;28;19920;-29
2023/07/02 12:17:15;;;;;;;;;;;21.50;44.10;;;;;;5051475;28;19919;-31
2023/07/02 12:19:41;;;;;;;;;;;21.60;44.50;;;;;;5051512;28;19912;-30
2023/07/02 12:22:07;;;;;;;;;;;21.70;44.30;;;;;;5053515;28;19966;-28
2023/07/02 12:24:32;;;;;;;;;;;21.90;44.80;;;;;;5055646;28;20347;-30
2023/07/02 12:26:58;;;;;;;;;;;21.90;44.60;;;;;;5054369;28;20010;-32
2023/07/02 12:29:23;;;;;;;;;;;21.90;44.60;;;;;;5074537;28;20004;-28
2023/07/02 12:31:48;;;;;;;;;;;22.00;43.70;;;;;;5075479;28;19919;-27
2023/07/02 12:34:14;;;;;;;;;;;22.00;43.60;;;;;;5057350;28;19917;-28
2023/07/02 12:36:40;;;;;;;;;;;22.00;43.50;;;;;;5057280;28;19912;-28
2023/07/02 12:39:06;;;;;;;;;;;22.00;43.50;;;;;;5075709;28;20393;-31
2023/07/02 12:41:33;;;;;;;;;;;22.10;43.80;;;;;;5075564;28;20387;-30
2023/07/02 12:43:59;;;;;;;;;;;22.30;43.80;;;;;;5075484;28;19966;-29
2023/07/02 12:46:24;;;;;;;;;;;22.40;41.70;;;;;;5075539;28;19913;-27
2023/07/02 12:48:50;;;;;;;;;;;22.30;41.80;;;;;;5075589;28;19912;-31
2023/07/02 12:51:15;;;;;;;;;;;22.30;42.90;;;;;;5075289;28;20387;-27
2023/07/02 12:53:40;;;;;;;;;;;22.30;43.30;;;;;;5075214;28;19988;-29
2023/07/02 12:56:06;;;;;;;;;;;22.40;43.00;;;;;;5075340;28;19912;-27
2023/07/02 12:58:31;;;;;;;;;;;22.40;42.60;;;;;;5075465;28;19939;-28
2023/07/02 13:00:57;;;;;;;;;;;22.30;42.90;;;;;;5057023;28;19913;-28
2023/07/02 13:03:24;;;;;;;;;;;22.30;42.50;;;;;;5075060;28;20288;-28
2023/07/02 13:05:50;;;;;;;;;;;22.20;41.80;;;;;;5074992;28;19919;-27
2023/07/02 13:08:15;;;;;;;;;;;22.10;42.50;;;;;;5075026;28;19912;-27
2023/07/02 13:10:41;;;;;;;;;;;22.30;43.20;;;;;;5074979;28;19912;-27
2023/07/02 13:13:06;;;;;;;;;;;22.50;42.80;;;;;;5075242;28;19912;-28
2023/07/02 13:15:32;;;;;;;;;;;22.50;42.40;;;;;;5074881;28;19970;-27
2023/07/02 13:17:57;;;;;;;;;;;22.60;42.30;;;;;;5074712;28;19960;-28
2023/07/02 13:20:23;;;;;;;;;;;22.60;41.90;;;;;;5074632;28;19924;-27
2023/07/02 13:22:48;;;;;;;;;;;22.40;41.60;;;;;;5074685;28;19935;-41
2023/07/02 13:25:14;;;;;;;;;;;22.30;42.70;;;;;;5074382;28;20296;-44
2023/07/02 13:27:39;;;;;;;;;;;22.30;42.90;;;;;;5074294;28;19920;-42
2023/07/02 13:30:05;;;;;;;;;;;22.30;43.30;;;;;;5074461;28;19948;-44
2023/07/02 13:32:31;;;;;;;;;;;22.30;43.40;;;;;;5073807;28;19912;-41
2023/07/02 13:34:56;;;;;;;;;;;22.30;43.60;;;;;;5074235;28;19919;-44
2023/07/02 13:37:22;;;;;;;;;;;22.30;43.70;;;;;;5074153;28;19916;-45
2023/07/02 13:39:48;;;;;;;;;;;22.40;44.10;;;;;;5056160;28;19912;-43
2023/07/02 13:42:13;;;;;;;;;;;22.60;43.70;;;;;;5074093;28;20011;-44
2023/07/02 13:44:39;;;;;;;;;;;22.80;44.00;;;;;;5074021;28;19959;-42
2023/07/02 13:47:05;;;;;;;;;;;23.00;44.10;;;;;;5074058;28;19943;-42
2023/07/02 13:49:31;;;;;;;;;;;23.10;42.60;;;;;;5056028;28;19916;-43
2023/07/02 13:51:56;;;;;;;;;;;23.10;41.60;;;;;;5073903;28;19912;-43
2023/07/02 13:54:22;;;;;;;;;;;22.90;42.60;;;;;;5074205;28;19919;-45
2023/07/02 13:56:47;;;;;;;;;;;22.80;43.20;;;;;;5073873;28;20280;-43
2023/07/02 13:59:14;;;;;;;;;;;22.70;43.40;;;;;;5073704;28;20244;-44
2023/07/02 14:01:39;;;;;;;;;;;22.70;43.70;;;;;;5073876;28;19999;-44
2023/07/02 14:04:04;;;;;;;;;;;22.70;43.40;;;;;;5073645;28;20422;-45
2023/07/02 14:06:30;;;;;;;;;;;22.70;43.80;;;;;;5073717;28;19919;-44
2023/07/02 14:08:56;;;;;;;;;;;22.60;43.70;;;;;;5073728;28;20046;-45